createdAt,value
2022-11-23T00:00:13.116Z,3.60
2022-11-23T00:03:01.944Z,3.60
2022-11-23T00:05:52.144Z,3.60
2022-11-23T00:08:41.087Z,3.60
2022-11-23T00:11:30.297Z,3.60
2022-11-23T00:14:18.636Z,3.70
2022-11-23T00:17:07.229Z,3.70
2022-11-23T00:19:55.539Z,3.70
2022-11-23T00:22:45.260Z,3.80
2022-11-23T00:25:33.667Z,3.80
2022-11-23T00:28:21.997Z,3.80
2022-11-23T00:31:12.926Z,3.80
2022-11-23T00:34:01.225Z,3.80
2022-11-23T00:36:49.602Z,3.80
2022-11-23T00:39:39.250Z,3.90
2022-11-23T00:42:27.589Z,3.90
2022-11-23T00:45:16.089Z,3.90
2022-11-23T00:48:04.540Z,3.90
2022-11-23T00:50:52.878Z,3.90
2022-11-23T00:53:41.471Z,3.90
2022-11-23T00:56:32.075Z,3.90
2022-11-23T00:59:20.383Z,3.90
2022-11-23T01:02:08.724Z,3.90
2022-11-23T01:04:57.031Z,3.90
2022-11-23T01:07:45.369Z,3.90
2022-11-23T01:10:34.177Z,3.90
2022-11-23T01:13:23.845Z,3.90
2022-11-23T01:16:20.863Z,3.90
2022-11-23T01:19:13.817Z,3.90
2022-11-23T01:22:02.215Z,3.90
2022-11-23T01:24:51.461Z,3.80
2022-11-23T01:27:39.781Z,3.80
2022-11-23T01:30:29.721Z,3.80
2022-11-23T01:33:18.118Z,3.80
2022-11-23T01:36:14.030Z,3.80
2022-11-23T01:39:03.208Z,3.70
2022-11-23T01:41:51.527Z,3.70
2022-11-23T01:44:39.855Z,3.60
2022-11-23T01:47:29.599Z,3.60
2022-11-23T01:50:18.040Z,3.50
2022-11-23T01:53:06.895Z,3.50
2022-11-23T01:55:58.673Z,3.50
2022-11-23T01:58:51.946Z,3.50
2022-11-23T02:01:40.337Z,3.50
2022-11-23T02:04:33.802Z,3.50
2022-11-23T02:07:24.565Z,3.40
2022-11-23T02:10:15.983Z,3.40
2022-11-23T02:13:08.163Z,3.50
2022-11-23T02:15:58.793Z,3.50
2022-11-23T02:18:50.649Z,3.60
2022-11-23T02:21:41.415Z,3.60
2022-11-23T02:24:35.162Z,3.60
2022-11-23T02:27:26.202Z,3.50
2022-11-23T02:30:14.787Z,3.50
2022-11-23T02:33:05.975Z,3.50
2022-11-23T02:35:56.251Z,3.50
2022-11-23T02:38:44.713Z,3.40
2022-11-23T02:41:37.118Z,3.40
2022-11-23T02:44:38.461Z,3.30
2022-11-23T02:47:26.585Z,3.30
2022-11-23T02:50:15.438Z,3.30
2022-11-23T02:53:03.792Z,3.20
2022-11-23T02:55:52.111Z,3.30
2022-11-23T02:58:40.448Z,3.30
2022-11-23T03:01:30.960Z,3.20
2022-11-23T03:04:25.893Z,3.20
2022-11-23T03:07:15.909Z,3.20
2022-11-23T03:10:05.368Z,3.20
2022-11-23T03:12:56.494Z,3.20
2022-11-23T03:15:45.394Z,3.20
2022-11-23T03:18:35.132Z,3.20
2022-11-23T03:21:23.473Z,3.30
2022-11-23T03:24:11.891Z,3.20
2022-11-23T03:27:00.274Z,3.20
2022-11-23T03:29:48.722Z,3.20
2022-11-23T03:32:37.304Z,3.10
2022-11-23T03:35:27.018Z,3.10
2022-11-23T03:38:15.845Z,3.10
2022-11-23T03:41:04.166Z,3.10
2022-11-23T03:43:52.493Z,3.10
2022-11-23T03:46:40.913Z,3.20
2022-11-23T03:49:29.565Z,3.10
2022-11-23T03:52:19.434Z,3.20
2022-11-23T03:55:08.465Z,3.10
2022-11-23T03:57:59.609Z,3.10
2022-11-23T04:00:47.974Z,3.00
2022-11-23T04:03:36.396Z,3.00
2022-11-23T04:06:24.758Z,3.00
2022-11-23T04:09:15.032Z,3.00
2022-11-23T04:12:03.394Z,3.10
2022-11-23T04:14:51.760Z,3.10
2022-11-23T04:17:40.108Z,3.10
2022-11-23T04:20:28.526Z,3.10
2022-11-23T04:23:16.806Z,3.20
2022-11-23T04:26:06.725Z,3.20
2022-11-23T04:28:55.016Z,3.20
2022-11-23T04:31:43.340Z,3.30
2022-11-23T04:34:31.659Z,3.30
2022-11-23T04:37:20.007Z,3.20
2022-11-23T04:40:09.468Z,3.20
2022-11-23T04:43:01.820Z,3.20
2022-11-23T04:45:50.543Z,3.20
2022-11-23T04:48:38.904Z,3.20
2022-11-23T04:51:27.240Z,3.20
2022-11-23T04:54:15.505Z,3.20
2022-11-23T04:57:03.854Z,3.20
2022-11-23T04:59:53.574Z,3.20
2022-11-23T05:02:41.942Z,3.20
2022-11-23T05:05:30.245Z,3.20
2022-11-23T05:08:18.639Z,3.20
2022-11-23T05:11:07.260Z,3.20
2022-11-23T05:13:55.588Z,3.20
2022-11-23T05:16:45.223Z,3.20
2022-11-23T05:19:33.803Z,3.20
2022-11-23T05:22:22.320Z,3.10
2022-11-23T05:25:11.004Z,3.20
2022-11-23T05:28:11.214Z,3.10
2022-11-23T05:31:07.854Z,3.10
2022-11-23T05:33:57.538Z,3.10
2022-11-23T05:36:45.874Z,3.00
2022-11-23T05:39:34.655Z,3.00
2022-11-23T05:42:23.524Z,3.00
2022-11-23T05:45:12.112Z,2.90
2022-11-23T05:48:00.957Z,2.90
2022-11-23T05:50:51.672Z,2.90
2022-11-23T05:53:39.970Z,2.90
2022-11-23T05:56:28.375Z,2.90
2022-11-23T05:59:16.700Z,2.90
2022-11-23T06:02:05.309Z,2.90
2022-11-23T06:04:53.650Z,2.90
2022-11-23T06:07:43.451Z,2.90
2022-11-23T06:10:31.849Z,2.90
2022-11-23T06:13:20.164Z,3.00
2022-11-23T06:16:08.867Z,3.00
2022-11-23T06:18:57.234Z,3.10
2022-11-23T06:21:50.210Z,3.10
2022-11-23T06:24:40.367Z,3.10
2022-11-23T06:27:28.838Z,3.10
2022-11-23T06:30:17.608Z,3.00
2022-11-23T06:33:06.329Z,2.90
2022-11-23T06:35:55.394Z,2.90
2022-11-23T06:38:43.725Z,2.90
2022-11-23T06:41:33.455Z,2.80
2022-11-23T06:44:21.894Z,2.90
2022-11-23T06:47:15.340Z,2.90
2022-11-23T06:50:06.077Z,2.80
2022-11-23T06:52:56.648Z,2.90
2022-11-23T06:55:44.967Z,2.90
2022-11-23T06:58:34.910Z,3.00
2022-11-23T07:01:23.280Z,3.00
2022-11-23T07:04:11.681Z,3.10
2022-11-23T07:06:59.962Z,3.10
2022-11-23T07:09:48.451Z,3.10
2022-11-23T07:12:36.799Z,3.10
2022-11-23T07:15:26.549Z,3.20
2022-11-23T07:18:16.560Z,3.30
2022-11-23T07:21:05.020Z,3.30
2022-11-23T07:23:53.394Z,3.40
2022-11-23T07:26:42.081Z,3.40
2022-11-23T07:29:30.698Z,3.50
2022-11-23T07:32:20.598Z,3.60
2022-11-23T07:35:09.780Z,3.70
2022-11-23T07:37:58.100Z,3.80
2022-11-23T07:40:49.823Z,3.90
2022-11-23T07:43:38.197Z,3.90
2022-11-23T07:46:26.506Z,4.00
2022-11-23T07:49:16.219Z,4.00
2022-11-23T07:52:04.919Z,4.10
2022-11-23T07:54:53.310Z,4.20
2022-11-23T07:57:41.622Z,4.20
2022-11-23T08:00:30.722Z,4.30
2022-11-23T08:03:27.736Z,4.40
2022-11-23T08:06:18.295Z,4.40
2022-11-23T08:09:06.659Z,4.50
2022-11-23T08:11:55.096Z,4.50
2022-11-23T08:14:43.398Z,4.60
2022-11-23T08:17:31.855Z,4.70
2022-11-23T08:20:23.015Z,4.80
2022-11-23T08:23:12.600Z,4.80
2022-11-23T08:26:03.448Z,4.90
2022-11-23T08:28:53.170Z,4.90
2022-11-23T08:31:41.446Z,5.00
2022-11-23T08:34:30.138Z,5.00
2022-11-23T08:37:18.720Z,5.10
2022-11-23T08:40:09.851Z,5.20
2022-11-23T08:42:58.302Z,5.30
2022-11-23T08:45:46.592Z,5.30
2022-11-23T08:48:34.925Z,5.40
2022-11-23T08:51:23.477Z,5.50
2022-11-23T08:54:12.228Z,5.50
2022-11-23T08:57:01.892Z,5.60
2022-11-23T08:59:50.252Z,5.60
2022-11-23T09:02:38.583Z,5.70
2022-11-23T09:05:27.481Z,5.70
2022-11-23T09:08:16.520Z,5.80
2022-11-23T09:11:06.657Z,5.90
2022-11-23T09:13:56.557Z,5.90
2022-11-23T09:16:44.861Z,6.00
2022-11-23T09:19:33.288Z,6.00
2022-11-23T09:22:21.595Z,6.10
2022-11-23T09:25:10.338Z,6.10
2022-11-23T09:28:00.004Z,6.10
2022-11-23T09:30:49.775Z,6.10
2022-11-23T09:33:38.093Z,6.20
2022-11-23T09:36:26.479Z,6.30
2022-11-23T09:39:14.899Z,6.40
2022-11-23T09:42:32.817Z,6.40
2022-11-23T09:45:27.321Z,6.50
2022-11-23T09:48:44.433Z,6.50
2022-11-23T09:51:32.773Z,6.60
2022-11-23T09:54:27.696Z,6.70
2022-11-23T09:57:21.628Z,6.70
2022-11-23T10:00:19.887Z,6.70
2022-11-23T10:03:12.492Z,6.80
2022-11-23T10:06:08.246Z,6.80
2022-11-23T10:09:19.365Z,6.90
2022-11-23T10:12:26.781Z,6.90
2022-11-23T10:15:21.882Z,6.90
2022-11-23T10:18:23.794Z,7.00
2022-11-23T10:21:20.534Z,7.00
2022-11-23T10:24:20.157Z,7.10
2022-11-23T10:27:15.311Z,7.20
2022-11-23T10:30:04.013Z,7.40
2022-11-23T10:32:56.515Z,7.40
2022-11-23T10:35:44.828Z,7.60
2022-11-23T10:38:35.524Z,7.70
2022-11-23T10:41:23.873Z,7.70
2022-11-23T10:44:25.908Z,7.80
2022-11-23T10:47:37.962Z,7.90
2022-11-23T10:50:30.174Z,8.00
2022-11-23T10:53:23.934Z,8.00
2022-11-23T10:56:15.049Z,8.00
2022-11-23T10:59:03.171Z,8.20
2022-11-23T11:02:01.745Z,8.30
2022-11-23T11:04:58.424Z,8.30
2022-11-23T11:07:48.131Z,8.40
2022-11-23T11:10:40.520Z,8.50
2022-11-23T11:13:31.316Z,8.60
2022-11-23T11:16:22.447Z,8.80
2022-11-23T11:19:22.611Z,8.90
2022-11-23T11:22:30.099Z,9.00
2022-11-23T11:25:30.878Z,9.20
2022-11-23T11:28:26.431Z,9.30
2022-11-23T11:31:45.069Z,9.30
2022-11-23T11:34:42.967Z,9.40
2022-11-23T11:37:36.130Z,9.50
2022-11-23T11:40:33.224Z,9.60
2022-11-23T11:43:34.754Z,9.60
2022-11-23T11:46:33.966Z,9.70
2022-11-23T11:49:26.438Z,9.80
2022-11-23T11:52:22.109Z,9.90
2022-11-23T11:55:19.800Z,9.90
2022-11-23T11:58:12.572Z,9.90
2022-11-23T12:01:08.391Z,10.00
2022-11-23T12:04:00.544Z,10.00
2022-11-23T12:06:53.793Z,9.90
2022-11-23T12:09:45.967Z,9.90
2022-11-23T12:12:38.035Z,9.90
2022-11-23T12:15:48.857Z,10.00
2022-11-23T12:19:01.068Z,10.00
2022-11-23T12:22:22.867Z,10.00
2022-11-23T12:25:20.729Z,9.90
2022-11-23T12:28:22.299Z,10.00
2022-11-23T12:31:19.318Z,10.00
2022-11-23T12:34:18.989Z,10.00
2022-11-23T12:37:30.868Z,10.00
2022-11-23T12:40:31.900Z,9.90
2022-11-23T12:43:25.816Z,9.90
2022-11-23T12:46:23.326Z,9.90
2022-11-23T12:49:27.539Z,9.90
2022-11-23T12:52:30.743Z,9.90
2022-11-23T12:55:24.609Z,9.80
2022-11-23T12:58:20.460Z,9.80
2022-11-23T13:01:15.362Z,9.70
2022-11-23T13:04:44.506Z,9.80
2022-11-23T13:08:12.614Z,9.70
2022-11-23T13:11:16.799Z,9.80
2022-11-23T13:14:17.580Z,9.70
2022-11-23T13:17:29.577Z,9.70
2022-11-23T13:20:43.046Z,9.70
2022-11-23T13:23:37.197Z,9.70
2022-11-23T13:26:28.146Z,9.70
2022-11-23T13:29:58.586Z,9.70
2022-11-23T13:32:58.654Z,9.70
2022-11-23T13:36:09.208Z,9.70
2022-11-23T13:39:00.668Z,9.80
2022-11-23T13:42:01.666Z,9.80
2022-11-23T13:44:50.107Z,9.70
2022-11-23T13:47:42.432Z,9.70
2022-11-23T13:50:34.255Z,9.80
2022-11-23T13:53:24.668Z,10.00
2022-11-23T13:56:41.393Z,10.20
2022-11-23T13:59:33.457Z,10.10
2022-11-23T14:02:27.881Z,10.20
2022-11-23T14:05:59.125Z,10.20
2022-11-23T14:08:49.895Z,10.30
2022-11-23T14:11:50.190Z,10.20
2022-11-23T14:14:51.728Z,10.10
2022-11-23T14:18:06.536Z,10.00
2022-11-23T14:21:13.547Z,9.90
2022-11-23T14:24:39.373Z,9.90
2022-11-23T14:27:48.887Z,9.80
2022-11-23T14:30:47.785Z,9.70
2022-11-23T14:33:43.867Z,9.70
2022-11-23T14:36:40.538Z,9.60
2022-11-23T14:39:55.767Z,9.60
2022-11-23T14:42:46.421Z,9.50
2022-11-23T14:45:36.024Z,9.40
2022-11-23T14:48:28.986Z,9.30
2022-11-23T14:51:19.965Z,9.30
2022-11-23T14:54:11.267Z,9.20
2022-11-23T14:57:03.822Z,9.10
2022-11-23T14:59:55.428Z,9.00
2022-11-23T15:02:44.687Z,9.00
2022-11-23T15:05:34.952Z,9.00
2022-11-23T15:08:26.845Z,8.90
2022-11-23T15:11:19.058Z,8.80
2022-11-23T15:14:20.882Z,8.70
2022-11-23T15:17:16.258Z,8.60
2022-11-23T15:20:05.413Z,8.50
2022-11-23T15:22:53.976Z,8.40
2022-11-23T15:25:52.299Z,8.30
2022-11-23T15:28:40.936Z,8.20
2022-11-23T15:31:33.878Z,8.20
2022-11-23T15:34:23.011Z,8.00
2022-11-23T15:37:12.075Z,7.90
2022-11-23T15:40:01.229Z,7.80
2022-11-23T15:42:51.548Z,7.70
2022-11-23T15:45:59.818Z,7.60
2022-11-23T15:48:51.189Z,7.60
2022-11-23T15:51:41.945Z,7.40
2022-11-23T15:54:35.887Z,7.40
2022-11-23T15:57:28.264Z,7.30
2022-11-23T16:00:24.952Z,7.20
2022-11-23T16:03:33.749Z,7.20
2022-11-23T16:06:35.731Z,7.10
2022-11-23T16:09:58.536Z,7.00
2022-11-23T16:12:50.151Z,6.90
2022-11-23T16:15:42.056Z,6.80
2022-11-23T16:18:31.897Z,6.70
2022-11-23T16:21:21.776Z,6.70
2022-11-23T16:24:21.138Z,6.60
2022-11-23T16:27:16.316Z,6.60
2022-11-23T16:30:05.967Z,6.60
2022-11-23T16:32:54.447Z,6.60
2022-11-23T16:35:43.136Z,6.50
2022-11-23T16:38:31.942Z,6.50
2022-11-23T16:41:21.689Z,6.50
2022-11-23T16:44:10.042Z,6.40
2022-11-23T16:47:21.015Z,6.40
2022-11-23T16:50:13.805Z,6.40
2022-11-23T16:53:10.219Z,6.40
2022-11-23T16:55:59.870Z,6.40
2022-11-23T16:58:49.914Z,6.40
2022-11-23T17:01:40.249Z,6.30
2022-11-23T17:04:28.724Z,6.20
2022-11-23T17:07:17.519Z,6.20
2022-11-23T17:10:06.697Z,6.20
2022-11-23T17:12:56.825Z,6.10
2022-11-23T17:15:46.496Z,6.10
2022-11-23T17:18:34.850Z,6.00
2022-11-23T17:21:23.290Z,5.90
2022-11-23T17:24:12.880Z,5.90
2022-11-23T17:27:01.435Z,5.90
2022-11-23T17:29:54.732Z,5.90
2022-11-23T17:32:44.496Z,5.90
2022-11-23T17:35:36.895Z,5.90
2022-11-23T17:38:27.933Z,5.90
2022-11-23T17:41:16.793Z,5.80
2022-11-23T17:44:05.687Z,5.80
2022-11-23T17:46:58.668Z,5.70
2022-11-23T17:49:49.431Z,5.80
2022-11-23T17:52:40.611Z,5.80
2022-11-23T17:55:28.794Z,5.70
2022-11-23T17:58:17.311Z,5.70
2022-11-23T18:01:05.991Z,5.70
2022-11-23T18:03:54.521Z,5.60
2022-11-23T18:06:44.318Z,5.60
2022-11-23T18:09:33.066Z,5.60
2022-11-23T18:12:21.591Z,5.60
2022-11-23T18:15:10.704Z,5.60
2022-11-23T18:18:04.383Z,5.60
2022-11-23T18:20:53.259Z,5.60
2022-11-23T18:23:43.186Z,5.50
2022-11-23T18:26:32.083Z,5.50
2022-11-23T18:29:20.524Z,5.40
2022-11-23T18:32:09.400Z,5.40
2022-11-23T18:34:57.738Z,5.40
2022-11-23T18:37:46.045Z,5.40
2022-11-23T18:40:35.770Z,5.40
2022-11-23T18:43:24.359Z,5.40
2022-11-23T18:46:19.044Z,5.40
2022-11-23T18:49:08.270Z,5.30
2022-11-23T18:51:56.619Z,5.40
2022-11-23T18:54:44.923Z,5.40
2022-11-23T18:57:34.633Z,5.30
2022-11-23T19:00:23.506Z,5.30
2022-11-23T19:03:12.710Z,5.20
2022-11-23T19:06:03.245Z,5.20
2022-11-23T19:08:54.523Z,5.20
2022-11-23T19:11:42.672Z,5.20
2022-11-23T19:14:32.333Z,5.10
2022-11-23T19:17:20.655Z,5.00
2022-11-23T19:20:10.335Z,5.10
2022-11-23T19:22:58.665Z,5.00
2022-11-23T19:25:47.014Z,5.00
2022-11-23T19:28:35.982Z,4.90
2022-11-23T19:31:27.464Z,5.00
2022-11-23T19:34:15.812Z,5.00
2022-11-23T19:37:04.205Z,4.90
2022-11-23T19:39:52.571Z,4.90
2022-11-23T19:42:42.653Z,5.00
2022-11-23T19:45:30.942Z,5.00
2022-11-23T19:48:22.556Z,4.90
2022-11-23T19:51:13.017Z,4.90
2022-11-23T19:54:02.138Z,4.90
2022-11-23T19:56:51.027Z,4.80
2022-11-23T19:59:39.391Z,4.80
2022-11-23T20:02:29.978Z,4.70
2022-11-23T20:05:19.733Z,4.70
2022-11-23T20:08:08.749Z,4.60
2022-11-23T20:10:57.896Z,4.50
2022-11-23T20:13:46.262Z,4.40
2022-11-23T20:16:35.068Z,4.40
2022-11-23T20:19:23.910Z,4.40
2022-11-23T20:22:13.640Z,4.40
2022-11-23T20:25:01.936Z,4.30
2022-11-23T20:27:50.349Z,4.30
2022-11-23T20:30:38.742Z,4.30
2022-11-23T20:33:27.643Z,4.20
2022-11-23T20:36:17.587Z,4.10
2022-11-23T20:39:09.101Z,4.10
2022-11-23T20:41:58.709Z,4.10
2022-11-23T20:44:47.135Z,4.00
2022-11-23T20:47:35.545Z,4.00
2022-11-23T20:50:25.367Z,4.00
2022-11-23T20:53:13.758Z,4.00
2022-11-23T20:56:05.467Z,4.00
2022-11-23T20:58:56.394Z,4.00
2022-11-23T21:01:44.756Z,4.00
2022-11-23T21:04:33.375Z,4.00
2022-11-23T21:07:22.433Z,4.00
2022-11-23T21:10:31.252Z,3.90
2022-11-23T21:13:49.264Z,3.90
2022-11-23T21:16:40.668Z,4.00
2022-11-23T21:19:30.731Z,3.90
2022-11-23T21:22:19.343Z,3.90
2022-11-23T21:25:08.420Z,3.90
2022-11-23T21:27:58.194Z,3.90
2022-11-23T21:30:47.937Z,3.90
2022-11-23T21:33:37.286Z,3.90
2022-11-23T21:36:25.638Z,3.90
2022-11-23T21:39:14.856Z,3.90
2022-11-23T21:42:03.474Z,3.80
2022-11-23T21:44:52.025Z,3.80
2022-11-23T21:47:41.741Z,3.80
2022-11-23T21:50:30.106Z,3.70
2022-11-23T21:53:19.386Z,3.70
2022-11-23T21:56:09.567Z,3.60
2022-11-23T21:58:59.379Z,3.60
2022-11-23T22:01:47.801Z,3.60
2022-11-23T22:04:38.684Z,3.50
2022-11-23T22:07:27.033Z,3.50
2022-11-23T22:10:15.520Z,3.50
2022-11-23T22:13:03.896Z,3.40
2022-11-23T22:15:52.246Z,3.30
2022-11-23T22:18:40.637Z,3.20
2022-11-23T22:21:33.686Z,3.30
2022-11-23T22:24:22.602Z,3.20
2022-11-23T22:27:11.215Z,3.30
2022-11-23T22:29:59.505Z,3.30
2022-11-23T22:32:48.335Z,3.20
2022-11-23T22:35:36.634Z,3.30
2022-11-23T22:38:26.267Z,3.20
2022-11-23T22:41:16.278Z,3.20
2022-11-23T22:44:05.385Z,3.30
2022-11-23T22:46:53.654Z,3.30
2022-11-23T22:49:41.956Z,3.40
2022-11-23T22:52:30.277Z,3.30
2022-11-23T22:55:19.985Z,3.20
2022-11-23T22:58:08.609Z,3.10
2022-11-23T23:00:57.459Z,3.00
2022-11-23T23:03:46.637Z,3.00
2022-11-23T23:06:35.874Z,3.00
2022-11-23T23:09:24.294Z,3.10
2022-11-23T23:12:14.019Z,3.10
2022-11-23T23:15:03.634Z,3.10
2022-11-23T23:17:51.947Z,3.10
2022-11-23T23:20:40.328Z,3.10
2022-11-23T23:23:28.735Z,3.10
2022-11-23T23:26:18.622Z,3.20
2022-11-23T23:29:08.361Z,3.10
2022-11-23T23:31:56.755Z,3.10
2022-11-23T23:34:45.080Z,3.10
2022-11-23T23:37:33.473Z,3.00
2022-11-23T23:40:22.434Z,2.90
2022-11-23T23:43:10.808Z,2.80
2022-11-23T23:46:02.342Z,2.80
2022-11-23T23:48:50.745Z,2.70
2022-11-23T23:51:39.338Z,2.70
2022-11-23T23:54:27.715Z,2.60
2022-11-23T23:57:16.167Z,2.60
